Latest Coastal Weather Observations for Broome

IDW60701

Issued at 9:43 pm WST Monday 4 May 2026 (issued every 10 minutes, with the page automatically refreshed every 10 minutes)

About coastal observations | Map of coastal stations | Coastal observations for WA | Marine services | Other Formats
Station Details ID: 003003 Name: BROOME AIRPORT Lat: -17.95 Lon: 122.24 Height: 7.42 m
Data from the previous 72 hours. | See also: Recent months at Broome
Date/Time
WST
Wind Sea
Height
m
Swell Vis
km
Cloud Weather Temp
°C
Press
MSL
hPa
Rain since
9am
mm
Dir  Spd
kts
Gust
kts
Height
m
Period
s
Dir
04/09:30pm SE 10 14 - - - - 10 Clear - 27.6 1014.7 0.0
04/09:00pm SE 7 10 - - - - 10 - - 27.8 1014.7 0.0
04/08:30pm SE 4 7 - - - - 10 - - 25.3 1014.7 0.0
04/08:00pm SE 7 11 - - - - 10 - - 28.3 1014.3 0.0
04/07:30pm SSE 7 11 - - - - 10 - - 28.8 1014.1 0.0
04/07:00pm SSE 6 10 - - - - 10 - - 28.6 1013.8 0.0
04/06:30pm SE 6 9 - - - - 10 - - 29.0 1013.5 0.0
04/06:00pm SE 6 9 - - - - 10 - - 28.8 1013.1 0.0
04/05:30pm SE 7 10 - - - - 10 - - 29.8 1012.8 0.0
04/05:00pm SE 7 11 - - - - 10 - - 30.5 1012.5 0.0
04/04:30pm SE 7 10 - - - - 10 - - 31.2 1012.2 0.0
04/04:00pm SSE 7 11 - - - - 10 - - 32.1 1012.2 0.0
04/03:30pm SSE 8 11 - - - - 10 - - 32.6 1012.2 0.0
04/03:00pm SSE 8 12 - - - - 10 - - 32.7 1012.2 0.0
04/02:30pm SSE 10 14 - - - - 10 - - 32.6 1012.4 0.0
04/02:00pm SE 9 13 - - - - 10 - - 32.9 1012.5 0.0
04/01:30pm SE 9 13 - - - - 10 - - 32.6 1012.8 0.0
04/01:00pm ESE 10 14 - - - - 10 Partly cloudy - 32.6 1013.1 0.0
04/12:30pm ESE 10 15 - - - - 10 Partly cloudy - 32.5 1013.7 0.0
04/12:00pm ESE 10 17 - - - - 10 - - 31.6 1014.2 0.0
04/11:30am ESE 11 16 - - - - 10 - - 31.3 1014.6 0.0
04/11:00am ESE 11 15 - - - - 10 - - 30.9 1015.0 0.0
04/10:30am ESE 10 16 - - - - 10 Partly cloudy - 29.8 1015.5 0.0
04/10:00am ESE 11 17 - - - - 10 Mostly clear - 28.1 1015.8 0.0
04/09:30am ESE 9 14 - - - - 10 Mostly clear - 28.4 1016.0 0.0
04/09:00am ESE 8 15 - - - - 10 Mostly clear - 26.3 1016.0 0.0
04/08:30am ESE 11 16 - - - - 10 Partly cloudy - 25.5 1015.9 0.0
04/08:00am ESE 8 11 - - - - 10 - - 24.6 1015.7 0.0
04/07:30am ESE 7 10 - - - - 10 Partly cloudy - 23.2 1015.5 0.0
04/07:00am ESE 6 8 - - - - 10 Partly cloudy - 22.4 1015.3 0.0
04/06:30am E 6 8 - - - - 10 - - 21.3 1014.9 0.0
04/06:00am ESE 6 8 - - - - 10 - - 21.5 1014.5 0.0
04/05:30am ESE 6 9 - - - - 10 - - 21.4 1014.2 0.0
04/05:00am E 6 7 - - - - 10 - - 21.4 1013.9 0.0
04/04:30am ESE 6 7 - - - - 10 - - 22.4 1013.7 0.0
04/04:00am ESE 6 7 - - - - 10 - - 22.5 1013.5 0.0
04/03:30am ESE 6 9 - - - - 10 - - 23.3 1013.7 0.0
04/03:00am ESE 7 11 - - - - 10 - - 24.7 1013.5 0.0
04/02:30am SE 10 16 - - - - 10 - - 26.2 1013.4 0.0
04/02:00am SE 11 16 - - - - 10 - - 26.8 1013.2 0.0
04/01:30am SE 12 19 - - - - 10 - - 27.1 1013.2 0.0
04/01:00am SE 11 16 - - - - 10 - - 27.3 1013.5 0.0
04/12:30am SE 11 16 - - - - 10 - - 27.6 1013.6 0.0
04/12:00am SE 13 19 - - - - 10 - - 28.1 1013.6 0.0
 
Date/Time
WST
Wind Sea
Height
m
Swell Vis
km
Cloud Weather Temp
°C
Press
MSL
hPa
Rain since
9am
mm
Dir  Spd
kts
Gust
kts
Height
m
Period
s
Dir
03/11:30pm SE 12 19 - - - - 10 - - 28.6 1013.4 0.0
03/11:00pm SE 12 20 - - - - 10 - - 28.8 1013.5 0.0
03/10:30pm SE 9 16 - - - - 10 - - 29.1 1013.5 0.0
03/10:00pm SE 8 11 - - - - 10 - - 29.1 1013.6 0.0
03/09:30pm SSE 5 7 - - - - 10 - - 28.2 1013.6 0.0
03/09:00pm SSE 4 5 - - - - 10 - - 28.4 1013.6 0.0
03/08:30pm SSE 4 5 - - - - 10 - - 28.5 1013.5 0.0
03/08:00pm S 4 6 - - - - 10 - - 28.0 1013.2 0.0
03/07:30pm CALM 0 0 - - - - 10 - - 25.4 1012.8 0.0
03/07:00pm WSW 1 3 - - - - 10 - - 27.0 1012.5 0.0
03/06:30pm WSW 5 5 - - - - 10 - - 28.6 1012.0 0.0
03/06:00pm WSW 5 6 - - - - 10 - - 29.1 1011.6 0.0
03/05:30pm WSW 6 8 - - - - 10 Mostly clear - 30.0 1011.4 0.0
03/05:00pm WSW 6 8 - - - - 10 - - 31.1 1011.1 0.0
03/04:30pm WSW 6 8 - - - - 10 - - 32.1 1010.8 0.0
03/04:00pm SW 5 7 - - - - 10 - - 33.2 1010.7 0.0
03/03:30pm S 6 8 - - - - 10 - - 33.8 1010.6 0.0
03/03:00pm S 5 8 - - - - 10 - - 33.9 1010.7 0.0
03/02:30pm S 5 9 - - - - 10 - - 33.7 1010.8 0.0
03/02:00pm S 5 8 - - - - 10 - - 33.9 1011.2 0.0
03/01:30pm SSE 5 8 - - - - 10 - - 33.6 1011.5 0.0
03/01:00pm SSE 7 10 - - - - 10 - - 32.9 1011.8 0.0
03/12:30pm SSE 7 10 - - - - 10 - - 32.4 1012.2 0.0
03/12:00pm SE 6 9 - - - - 10 - - 31.7 1012.7 0.0
03/11:30am ESE 8 11 - - - - 10 - - 31.1 1013.2 0.0
03/11:00am SE 9 14 - - - - 10 - - 30.4 1013.6 0.0
03/10:30am SE 10 14 - - - - 10 - - 29.4 1014.0 0.0
03/10:00am SE 11 15 - - - - 10 - - 29.0 1014.3 0.0
03/09:30am ESE 11 17 - - - - 10 - - 28.4 1014.6 0.0
03/09:00am ESE 10 15 - - - - 10 - - 27.1 1014.8 0.0
03/08:30am ESE 10 17 - - - - 10 - - 26.3 1014.7 0.0
03/08:00am ESE 10 15 - - - - 10 - - 25.4 1014.4 0.0
03/07:30am ESE 8 14 - - - - 10 - - 24.8 1014.3 0.0
03/07:00am ESE 8 12 - - - - 10 - - 24.1 1013.7 0.0
03/06:30am ESE 8 11 - - - - 10 - - 23.5 1013.3 0.0
03/06:00am ESE 7 10 - - - - 10 - - 23.5 1012.9 0.0
03/05:30am SE 11 15 - - - - 10 Mostly clear - 24.8 1012.5 0.0
03/05:00am SE 10 15 - - - - 10 Mostly clear - 25.1 1012.3 0.0
03/04:30am SE 10 15 - - - - 10 Cloudy - 25.7 1012.2 0.0
03/04:00am SSE 11 16 - - - - 10 Cloudy - 26.1 1012.0 0.0
03/03:30am SSE 10 17 - - - - 10 Cloudy - 26.5 1012.0 0.0
03/03:00am SE 10 17 - - - - 10 Cloudy - 26.9 1011.9 0.0
03/02:30am SE 9 14 - - - - 10 Cloudy - 27.4 1011.9 0.0
03/02:00am SE 8 11 - - - - 10 Partly cloudy - 27.7 1011.7 0.0
03/01:30am SSE 10 15 - - - - 10 Cloudy - 28.1 1011.7 0.0
03/01:00am SSE 10 16 - - - - 10 Partly cloudy - 28.8 1011.7 0.0
03/12:30am SSE 7 12 - - - - 10 - - 28.6 1012.0 0.0
03/12:00am SW 7 9 - - - - 10 Mostly cloudy - 28.9 1011.8 0.0
 
Date/Time
WST
Wind Sea
Height
m
Swell Vis
km
Cloud Weather Temp
°C
Press
MSL
hPa
Rain since
9am
mm
Dir  Spd
kts
Gust
kts
Height
m
Period
s
Dir
02/11:30pm WSW 6 7 - - - - 10 Partly cloudy - 28.6 1012.1 0.0
02/11:00pm W 5 7 - - - - 10 Mostly clear - 28.0 1012.4 0.0
02/10:30pm W 5 7 - - - - 10 Partly cloudy - 28.2 1012.5 0.0
02/10:00pm W 5 7 - - - - 10 - - 28.2 1012.6 0.0
02/09:30pm WNW 5 7 - - - - 10 - - 28.2 1012.6 0.0
02/09:00pm W 6 8 - - - - 10 Mostly cloudy - 28.9 1012.7 0.0
02/08:30pm W 5 7 - - - - 10 Mostly clear - 28.9 1012.5 0.0
02/08:00pm W 7 9 - - - - 10 - - 29.0 1012.1 0.0
02/07:30pm W 8 11 - - - - 10 Mostly clear - 29.2 1011.7 0.0
02/07:00pm W 9 11 - - - - 10 Partly cloudy - 29.5 1011.2 0.0
02/06:30pm W 9 13 - - - - 10 Partly cloudy - 29.5 1010.8 0.0
02/06:00pm WSW 9 11 - - - - 10 Mostly clear - 29.5 1010.5 0.0
02/05:30pm WSW 10 13 - - - - 10 Partly cloudy - 29.8 1010.2 0.0
02/05:00pm WSW 12 15 - - - - 10 Mostly clear - 30.2 1009.8 0.0
02/04:30pm WSW 12 16 - - - - 10 - - 30.8 1009.6 0.0
02/04:00pm WSW 13 17 - - - - 10 - - 31.2 1009.3 0.0
02/03:30pm WSW 13 16 - - - - 10 - - 31.8 1009.3 0.0
02/03:00pm W 13 16 - - - - 10 - - 31.9 1009.1 0.0
02/02:30pm WSW 12 15 - - - - 10 - - 32.0 1009.4 0.0
02/02:00pm W 10 14 - - - - 10 - - 32.5 1009.7 0.0
02/01:30pm W 10 15 - - - - 10 - - 32.8 1010.0 0.0
02/01:00pm W 9 12 - - - - 10 - - 33.3 1010.3 0.0
02/12:30pm SW 10 13 - - - - 10 - - 32.9 1010.7 0.0
02/12:00pm SSW 9 12 - - - - 10 - - 32.4 1011.1 0.0
02/11:30am SSW 9 13 - - - - 10 - - 31.7 1011.6 0.0
02/11:00am SSW 9 16 - - - - 10 - - 31.4 1012.1 0.0
02/10:30am S 7 11 - - - - 10 - - 30.6 1012.5 0.0
02/10:00am S 8 12 - - - - 10 - - 29.7 1013.0 0.0
02/09:30am S 7 10 - - - - 10 - - 29.5 1013.0 0.0
02/09:00am SSE 7 11 - - - - 10 - - 28.6 1012.9 0.0
02/08:30am SSE 6 9 - - - - 10 - - 28.0 1012.9 0.0
02/08:00am SSE 6 8 - - - - 10 - - 27.4 1012.8 0.0
02/07:30am SE 4 5 - - - - 10 - - 26.3 1012.5 0.0
02/07:00am SSE 3 6 - - - - 10 - - 24.4 1012.1 0.0
02/06:30am CALM 0 0 - - - - 10 - - 21.6 1011.7 0.0
02/06:00am CALM 0 0 - - - - 10 - - 20.8 1011.5 0.0
02/05:30am CALM 0 0 - - - - 10 - - 20.9 1011.2 0.0
02/05:00am NNE 1 4 - - - - 10 - - 21.0 1010.9 0.0
02/04:30am NNE 2 4 - - - - 10 - - 21.2 1010.7 0.0
02/04:00am CALM 0 1 - - - - 10 - - 21.5 1010.8 0.0
02/03:30am NNE 4 4 - - - - 10 - - 21.7 1010.9 0.0
02/03:00am NE 4 5 - - - - 10 - - 21.8 1011.0 0.0
02/02:30am CALM 0 0 - - - - 10 - - 22.3 1011.1 0.0
02/02:00am CALM 0 0 - - - - 10 - - 22.2 1011.4 0.0
02/01:30am CALM 0 0 - - - - 10 - - 22.8 1011.7 0.0
02/01:00am SW 1 4 - - - - 10 - - 23.4 1012.0 0.0
02/12:30am W 1 5 - - - - 10 - - 24.4 1012.0 0.0
02/12:00am WNW 3 5 - - - - 10 - - 25.7 1012.1 0.0
 
Date/Time
WST
Wind Sea
Height
m
Swell Vis
km
Cloud Weather Temp
°C
Press
MSL
hPa
Rain since
9am
mm
Dir  Spd
kts
Gust
kts
Height
m
Period
s
Dir
01/11:30pm W 5 6 - - - - 10 - - 26.7 1012.3 0.0
01/11:00pm WNW 4 6 - - - - 10 Mostly clear - 26.8 1012.5 0.0
01/10:30pm WNW 5 6 - - - - 10 Mostly clear - 27.1 1012.6 0.0
01/10:00pm WNW 4 6 - - - - 10 Partly cloudy - 27.1 1012.7 0.0

Other formats

Comma delimited format used in spreadsheet applications
http://www.bom.gov.au/fwo/IDW60701/IDW60701.94203.axf

JavaScript Object Notation format (JSON) in row-major order
http://www.bom.gov.au/fwo/IDW60701/IDW60701.94203.json

Data quality

Most of these data are generated automatically and are frequently updated. Quality checks on data are not normally performed. It is possible for incorrect values to appear. Refer to information at About Latest Weather Observations and please check the disclaimer before using these data.